CheckWX is a tool to help pilots better visualize weather data.  It is not intended as a substitute for an official pre-flight weather briefing.

09:13:23 UTC

KELD METAR
South Arkansas Regional at Goodwin Field Airport
El Dorado, Arkansas, USA
Current

20 mins ago

KELD 250853Z AUTO 00000KT 10SM BKN100 BKN120 23/23 A2993 RMK AO2 SLP132 T02330233 58007 $
Observed
Aug-25 @ 08:53 UTC
Visibility
10 SM
Flight Rules
VFR
Cloud Levels
  • Broken at 10,000' AGL
  • Broken at 12,000' AGL
Temperature
23°C / 73°F
Dewpoint
23°C / 73°F
Humidity
100%
Altimeter
29.93" Hg
Pressure
1013.52 hPa
Previous

1 hour ago

KELD 250753Z AUTO 00000KT 10SM OVC100 24/23 A2994 RMK AO2 SLP136 T02390233 $
Observed
Aug-25 @ 07:53 UTC
Visibility
10 SM
Flight Rules
VFR
Cloud Levels
  • Overcast at 10,000' AGL
Temperature
24°C / 75°F
Dewpoint
23°C / 73°F
Humidity
94%
Altimeter
29.94" Hg
Pressure
1013.92 hPa
Previous

2 hours ago

KELD 250653Z AUTO 13004KT 10SM OVC110 24/23 A2995 RMK AO2 SLP138 T02390233 $
Observed
Aug-25 @ 06:53 UTC
Wind
  • 130° at 4 KTS
Visibility
10 SM
Flight Rules
VFR
Cloud Levels
  • Overcast at 11,000' AGL
Temperature
24°C / 75°F
Dewpoint
23°C / 73°F
Humidity
94%
Altimeter
29.95" Hg
Pressure
1014.22 hPa